createdAt,value
2018-11-07T00:00:57.931Z,20.1
2018-11-07T00:01:59.833Z,20.2
2018-11-07T00:03:01.526Z,20.1
2018-11-07T00:04:03.170Z,20.1
2018-11-07T00:05:05.067Z,20.1
2018-11-07T00:06:06.667Z,20.1
2018-11-07T00:07:08.273Z,20.1
2018-11-07T00:08:09.991Z,20.1
2018-11-07T00:09:12.081Z,20.2
2018-11-07T00:10:13.426Z,20
2018-11-07T00:11:15.045Z,20
2018-11-07T00:12:16.367Z,20
2018-11-07T00:13:18.264Z,20.1
2018-11-07T00:14:20.161Z,20
2018-11-07T00:15:21.209Z,20.1
2018-11-07T00:16:23.107Z,20.1
2018-11-07T00:17:25.007Z,20
2018-11-07T00:18:26.904Z,20.1
2018-11-07T00:19:28.535Z,20.1
2018-11-07T00:20:30.392Z,20
2018-11-07T00:21:32.288Z,20.1
2018-11-07T00:22:34.186Z,20.1
2018-11-07T00:23:35.528Z,20.1
2018-11-07T00:24:37.153Z,20.1
2018-11-07T00:25:39.057Z,20
2018-11-07T00:26:40.696Z,20
2018-11-07T00:27:42.022Z,20
2018-11-07T00:28:43.069Z,20
2018-11-07T00:29:44.721Z,20
2018-11-07T00:30:46.340Z,20
2018-11-07T00:31:47.962Z,20
2018-11-07T00:32:49.305Z,20
2018-11-07T00:33:50.353Z,20
2018-11-07T00:34:51.988Z,20
2018-11-07T00:35:53.651Z,20
2018-11-07T00:36:55.271Z,19.9
2018-11-07T00:37:56.614Z,19.9
2018-11-07T00:38:57.960Z,20
2018-11-07T00:39:59.581Z,20.1
2018-11-07T00:41:00.915Z,20
2018-11-07T00:42:02.534Z,19.9
2018-11-07T00:43:04.432Z,19.9
2018-11-07T00:44:06.331Z,20
2018-11-07T00:45:08.227Z,20
2018-11-07T00:46:09.852Z,20
2018-11-07T00:47:11.474Z,20
2018-11-07T00:48:13.075Z,19.9
2018-11-07T00:49:14.695Z,19.9
2018-11-07T00:50:16.020Z,20
2018-11-07T00:51:17.370Z,19.9
2018-11-07T00:52:18.992Z,20
2018-11-07T00:53:20.615Z,20
2018-11-07T00:54:22.236Z,19.9
2018-11-07T00:55:23.858Z,19.9
2018-11-07T00:56:25.460Z,19.9
2018-11-07T00:57:26.782Z,20
2018-11-07T00:58:28.107Z,20
2018-11-07T00:59:29.730Z,20
2018-11-07T01:00:31.350Z,20
2018-11-07T01:01:33.249Z,20
2018-11-07T01:02:34.293Z,20
2018-11-07T01:03:35.915Z,20
2018-11-07T01:04:37.534Z,19.9
2018-11-07T01:05:38.863Z,20
2018-11-07T01:06:40.761Z,20
2018-11-07T01:07:42.383Z,20
2018-11-07T01:08:43.708Z,20
2018-11-07T01:09:45.329Z,20
2018-11-07T01:10:46.671Z,19.9
2018-11-07T01:11:48.317Z,20
2018-11-07T01:12:49.647Z,19.9
2018-11-07T01:13:51.262Z,19.9
2018-11-07T01:14:52.618Z,20
2018-11-07T01:15:54.515Z,20
2018-11-07T01:16:56.421Z,20
2018-11-07T01:17:57.737Z,19.9
2018-11-07T01:18:59.636Z,20
2018-11-07T01:20:01.294Z,20
2018-11-07T01:21:02.615Z,19.9
2018-11-07T01:22:04.214Z,19.9
2018-11-07T01:23:05.541Z,19.8
2018-11-07T01:24:07.150Z,20
2018-11-07T01:25:08.476Z,19.9
2018-11-07T01:26:10.375Z,19.9
2018-11-07T01:27:12.274Z,19.8
2018-11-07T01:28:14.311Z,19.9
2018-11-07T01:29:16.617Z,20
2018-11-07T01:30:17.941Z,19.9
2018-11-07T01:31:19.604Z,20
2018-11-07T01:32:20.926Z,19.9
2018-11-07T01:33:22.825Z,19.8
2018-11-07T01:34:23.899Z,19.9
2018-11-07T01:35:25.499Z,19.9
2018-11-07T01:36:26.819Z,19.9
2018-11-07T01:37:28.147Z,19.9
2018-11-07T01:38:29.763Z,19.9
2018-11-07T01:39:31.105Z,19.9
2018-11-07T01:40:32.148Z,19.9
2018-11-07T01:41:33.214Z,19.8
2018-11-07T01:42:34.814Z,19.9
2018-11-07T01:43:36.438Z,19.9
2018-11-07T01:44:38.058Z,19.9
2018-11-07T01:45:39.956Z,19.9
2018-11-07T01:46:41.852Z,19.9
2018-11-07T01:47:42.895Z,19.9
2018-11-07T01:48:44.520Z,19.9
2018-11-07T01:49:46.421Z,19.9
2018-11-07T01:50:48.072Z,19.8
2018-11-07T01:51:49.971Z,19.9
2018-11-07T01:52:51.604Z,19.8
2018-11-07T01:53:53.496Z,19.8
2018-11-07T01:54:55.400Z,19.8
2018-11-07T01:55:56.718Z,19.8
2018-11-07T01:56:58.062Z,19.9
2018-11-07T01:57:59.683Z,19.7
2018-11-07T01:59:01.026Z,19.8
2018-11-07T02:00:02.357Z,19.7
2018-11-07T02:01:03.975Z,19.8
2018-11-07T02:02:05.616Z,19.7
2018-11-07T02:03:07.239Z,19.8
2018-11-07T02:04:08.873Z,19.8
2018-11-07T02:05:10.195Z,19.8
2018-11-07T02:06:12.101Z,19.8
2018-11-07T02:07:13.414Z,19.8
2018-11-07T02:08:15.310Z,19.8
2018-11-07T02:09:17.216Z,19.7
2018-11-07T02:10:19.103Z,19.7
2018-11-07T02:11:20.446Z,19.8
2018-11-07T02:12:22.355Z,19.8
2018-11-07T02:13:23.974Z,19.6
2018-11-07T02:14:25.592Z,19.7
2018-11-07T02:15:27.499Z,19.7
2018-11-07T02:16:28.545Z,19.7
2018-11-07T02:17:30.440Z,19.7
2018-11-07T02:18:31.786Z,19.7
2018-11-07T02:19:33.681Z,19.7
2018-11-07T02:20:35.579Z,19.8
2018-11-07T02:21:37.476Z,19.6
2018-11-07T02:22:38.819Z,19.7
2018-11-07T02:23:40.437Z,19.8
2018-11-07T02:24:42.386Z,19.7
2018-11-07T02:25:44.006Z,19.7
2018-11-07T02:26:45.626Z,19.8
2018-11-07T02:27:47.247Z,19.7
2018-11-07T02:28:48.845Z,19.7
2018-11-07T02:29:50.465Z,19.7
2018-11-07T02:30:52.363Z,19.7
2018-11-07T02:31:53.985Z,19.7
2018-11-07T02:32:55.328Z,19.7
2018-11-07T02:33:56.672Z,19.6
2018-11-07T02:34:58.013Z,19.7
2018-11-07T02:35:59.617Z,19.7
2018-11-07T02:37:01.282Z,19.7
2018-11-07T02:38:02.792Z,19.7
2018-11-07T02:39:04.417Z,19.7
2018-11-07T02:40:06.324Z,19.7
2018-11-07T02:41:08.218Z,19.7
2018-11-07T02:42:09.535Z,19.7
2018-11-07T02:43:10.882Z,19.7
2018-11-07T02:44:12.776Z,19.7
2018-11-07T02:45:14.399Z,19.6
2018-11-07T02:46:16.296Z,19.6
2018-11-07T02:47:17.907Z,19.6
2018-11-07T02:48:19.802Z,19.6
2018-11-07T02:49:21.475Z,19.6
2018-11-07T02:50:23.099Z,19.6
2018-11-07T02:51:25.012Z,19.6
2018-11-07T02:52:26.897Z,19.6
2018-11-07T02:53:28.297Z,19.7
2018-11-07T02:54:30.300Z,19.6
2018-11-07T02:55:31.902Z,19.6
2018-11-07T02:56:33.538Z,19.6
2018-11-07T02:57:35.145Z,19.6
2018-11-07T02:58:37.060Z,19.6
2018-11-07T02:59:38.687Z,19.7
2018-11-07T03:00:40.582Z,19.6
2018-11-07T03:01:42.181Z,19.6
2018-11-07T03:02:43.799Z,19.7
2018-11-07T03:03:45.696Z,19.6
2018-11-07T03:04:47.595Z,19.6
2018-11-07T03:05:49.212Z,19.6
2018-11-07T03:06:51.100Z,19.6
2018-11-07T03:07:52.723Z,19.6
2018-11-07T03:08:54.324Z,19.6
2018-11-07T03:09:55.993Z,19.7
2018-11-07T03:10:56.997Z,19.6
2018-11-07T03:11:58.618Z,19.6
2018-11-07T03:12:59.936Z,19.6
2018-11-07T03:14:01.847Z,19.6
2018-11-07T03:15:03.744Z,19.6
2018-11-07T03:16:05.065Z,19.6
2018-11-07T03:17:06.403Z,19.6
2018-11-07T03:18:08.004Z,19.6
2018-11-07T03:19:09.348Z,19.6
2018-11-07T03:20:10.753Z,19.6
2018-11-07T03:21:11.793Z,19.6
2018-11-07T03:22:13.115Z,19.7
2018-11-07T03:23:14.433Z,19.6
2018-11-07T03:24:16.331Z,19.6
2018-11-07T03:25:18.236Z,19.6
2018-11-07T03:26:19.573Z,19.6
2018-11-07T03:27:21.198Z,19.6
2018-11-07T03:28:22.542Z,19.7
2018-11-07T03:29:23.882Z,19.6
2018-11-07T03:30:25.208Z,19.6
2018-11-07T03:31:26.828Z,19.6
2018-11-07T03:32:28.458Z,19.6
2018-11-07T03:33:30.073Z,19.5
2018-11-07T03:34:31.971Z,19.6
2018-11-07T03:35:33.586Z,19.6
2018-11-07T03:36:35.248Z,19.7
2018-11-07T03:37:36.862Z,19.6
2018-11-07T03:38:38.222Z,19.6
2018-11-07T03:39:39.651Z,19.6
2018-11-07T03:40:41.386Z,19.6
2018-11-07T03:41:43.290Z,19.5
2018-11-07T03:42:44.912Z,19.6
2018-11-07T03:43:46.559Z,19.7
2018-11-07T03:44:48.457Z,19.5
2018-11-07T03:45:50.079Z,19.6
2018-11-07T03:46:51.760Z,19.5
2018-11-07T03:47:53.695Z,19.4
2018-11-07T03:48:55.018Z,19.6
2018-11-07T03:49:56.339Z,19.5
2018-11-07T03:50:57.962Z,19.5
2018-11-07T03:51:59.582Z,19.5
2018-11-07T03:53:01.497Z,19.5
2018-11-07T03:54:03.299Z,19.5
2018-11-07T03:55:04.900Z,19.6
2018-11-07T03:56:06.519Z,19.5
2018-11-07T03:57:08.416Z,19.5
2018-11-07T03:58:09.459Z,19.5
2018-11-07T03:59:10.511Z,19.5
2018-11-07T04:00:12.134Z,19.5
2018-11-07T04:01:13.483Z,19.6
2018-11-07T04:02:15.380Z,19.5
2018-11-07T04:03:17.000Z,19.5
2018-11-07T04:04:18.063Z,19.6
2018-11-07T04:05:19.685Z,19.6
2018-11-07T04:06:21.289Z,19.5
2018-11-07T04:07:22.887Z,19.4
2018-11-07T04:08:24.232Z,19.5
2018-11-07T04:09:25.847Z,19.5
2018-11-07T04:10:27.468Z,19.5
2018-11-07T04:11:29.105Z,19.5
2018-11-07T04:12:30.734Z,19.5
2018-11-07T04:13:31.782Z,19.5
2018-11-07T04:14:33.391Z,19.5
2018-11-07T04:15:34.998Z,19.4
2018-11-07T04:16:36.898Z,19.4
2018-11-07T04:17:38.516Z,19.4
2018-11-07T04:18:40.456Z,19.4
2018-11-07T04:19:41.823Z,19.4
2018-11-07T04:20:43.445Z,19.4
2018-11-07T04:21:45.061Z,19.4
2018-11-07T04:22:46.686Z,19.4
2018-11-07T04:23:47.722Z,19.5
2018-11-07T04:24:49.068Z,19.4
2018-11-07T04:25:50.684Z,19.4
2018-11-07T04:26:52.305Z,19.4
2018-11-07T04:27:53.925Z,19.4
2018-11-07T04:28:55.548Z,19.4
2018-11-07T04:29:57.446Z,19.5
2018-11-07T04:30:59.094Z,19.5
2018-11-07T04:32:00.714Z,19.6
2018-11-07T04:33:01.762Z,19.4
2018-11-07T04:34:02.808Z,19.4
2018-11-07T04:35:04.153Z,19.4
2018-11-07T04:36:05.774Z,19.4
2018-11-07T04:37:07.093Z,19.5
2018-11-07T04:38:08.999Z,19.4
2018-11-07T04:39:10.656Z,19.5
2018-11-07T04:40:12.582Z,19.4
2018-11-07T04:41:14.200Z,19.4
2018-11-07T04:42:15.255Z,19.4
2018-11-07T04:43:16.571Z,19.4
2018-11-07T04:44:18.193Z,19.5
2018-11-07T04:45:19.518Z,19.4
2018-11-07T04:46:20.558Z,19.4
2018-11-07T04:47:21.880Z,19.4
2018-11-07T04:48:23.486Z,19.4
2018-11-07T04:49:24.549Z,19.4
2018-11-07T04:50:25.895Z,19.4
2018-11-07T04:51:27.492Z,19.4
2018-11-07T04:52:29.109Z,19.4
2018-11-07T04:53:30.728Z,19.4
2018-11-07T04:54:32.328Z,19.4
2018-11-07T04:55:33.652Z,19.4
2018-11-07T04:56:35.319Z,19.4
2018-11-07T04:57:37.219Z,19.3
2018-11-07T04:58:38.560Z,19.4
2018-11-07T04:59:39.605Z,19.4
2018-11-07T05:00:41.226Z,19.4
2018-11-07T05:01:42.549Z,19.4
2018-11-07T05:02:44.448Z,19.4
2018-11-07T05:03:45.773Z,19.3
2018-11-07T05:04:47.114Z,19.4
2018-11-07T05:05:48.749Z,19.4
2018-11-07T05:06:50.687Z,19.4
2018-11-07T05:07:52.605Z,19.4
2018-11-07T05:08:54.591Z,19.3
2018-11-07T05:09:55.931Z,19.5
2018-11-07T05:10:57.549Z,19.3
2018-11-07T05:11:59.168Z,19.3
2018-11-07T05:13:01.068Z,19.3
2018-11-07T05:14:01.832Z,19.3
2018-11-07T05:15:03.455Z,19.4
2018-11-07T05:16:04.523Z,19.4
2018-11-07T05:17:06.138Z,19.4
2018-11-07T05:18:07.187Z,19.4
2018-11-07T05:19:09.080Z,19.5
2018-11-07T05:20:10.680Z,19.4
2018-11-07T05:21:12.313Z,19.4
2018-11-07T05:22:13.623Z,19.5
2018-11-07T05:23:15.556Z,19.4
2018-11-07T05:24:16.895Z,19.4
2018-11-07T05:25:18.516Z,19.4
2018-11-07T05:26:20.304Z,19.5
2018-11-07T05:27:22.319Z,19.5
2018-11-07T05:28:23.661Z,19.5
2018-11-07T05:29:25.264Z,19.5
2018-11-07T05:30:26.639Z,19.5
2018-11-07T05:31:28.238Z,19.5
2018-11-07T05:32:29.834Z,19.5
2018-11-07T05:33:30.895Z,19.5
2018-11-07T05:34:32.796Z,19.5
2018-11-07T05:35:34.388Z,19.5
2018-11-07T05:36:35.987Z,19.5
2018-11-07T05:37:37.608Z,19.6
2018-11-07T05:38:39.506Z,19.6
2018-11-07T05:39:41.133Z,19.5
2018-11-07T05:40:42.752Z,19.6
2018-11-07T05:41:44.370Z,19.6
2018-11-07T05:42:45.969Z,19.6
2018-11-07T05:43:47.291Z,19.6
2018-11-07T05:44:49.189Z,19.6
2018-11-07T05:45:50.810Z,19.6
2018-11-07T05:46:52.431Z,19.6
2018-11-07T05:47:54.052Z,19.7
2018-11-07T05:48:55.390Z,19.6
2018-11-07T05:49:57.470Z,19.7
2018-11-07T05:50:59.365Z,19.7
2018-11-07T05:52:00.686Z,19.7
2018-11-07T05:53:02.303Z,19.7
2018-11-07T05:54:03.646Z,19.7
2018-11-07T05:55:04.970Z,19.8
2018-11-07T05:56:06.298Z,19.7
2018-11-07T05:57:07.626Z,19.8
2018-11-07T05:58:08.960Z,19.7
2018-11-07T05:59:10.564Z,19.7
2018-11-07T06:00:11.907Z,19.7
2018-11-07T06:01:13.553Z,19.7
2018-11-07T06:02:15.174Z,19.7
2018-11-07T06:03:16.497Z,19.7
2018-11-07T06:04:18.119Z,19.7
2018-11-07T06:05:19.488Z,19.7
2018-11-07T06:06:20.833Z,19.8
2018-11-07T06:07:22.435Z,19.8
2018-11-07T06:08:23.759Z,19.8
2018-11-07T06:09:25.655Z,19.8
2018-11-07T06:10:27.557Z,19.8
2018-11-07T06:11:28.913Z,19.8
2018-11-07T06:12:30.807Z,19.8
2018-11-07T06:13:31.874Z,19.7
2018-11-07T06:14:33.222Z,19.8
2018-11-07T06:15:34.561Z,19.9
2018-11-07T06:16:35.954Z,19.7
2018-11-07T06:17:37.848Z,19.7
2018-11-07T06:18:39.438Z,19.8
2018-11-07T06:19:40.762Z,19.8
2018-11-07T06:20:42.167Z,19.8
2018-11-07T06:21:43.786Z,19.8
2018-11-07T06:22:45.687Z,19.8
2018-11-07T06:23:47.029Z,19.8
2018-11-07T06:24:48.433Z,19.9
2018-11-07T06:25:50.301Z,19.8
2018-11-07T06:26:52.197Z,19.9
2018-11-07T06:27:54.097Z,19.9
2018-11-07T06:28:55.715Z,19.8
2018-11-07T06:29:57.339Z,19.9
2018-11-07T06:30:59.236Z,19.9
2018-11-07T06:32:00.857Z,19.9
2018-11-07T06:33:02.485Z,19.8
2018-11-07T06:34:03.266Z,19.8
2018-11-07T06:35:05.095Z,19.7
2018-11-07T06:36:06.439Z,19.9
2018-11-07T06:37:08.382Z,19.9
2018-11-07T06:38:09.727Z,19.9
2018-11-07T06:39:11.395Z,19.8
2018-11-07T06:40:12.443Z,19.8
2018-11-07T06:41:14.061Z,19.9
2018-11-07T06:42:15.107Z,19.9
2018-11-07T06:43:16.428Z,19.9
2018-11-07T06:44:18.070Z,19.8
2018-11-07T06:45:19.760Z,19.9
2018-11-07T06:46:21.107Z,19.9
2018-11-07T06:47:22.451Z,19.9
2018-11-07T06:48:23.774Z,19.8
2018-11-07T06:49:25.396Z,19.9
2018-11-07T06:50:27.293Z,20
2018-11-07T06:51:28.613Z,19.9
2018-11-07T06:52:30.233Z,19.9
2018-11-07T06:53:31.859Z,19.9
2018-11-07T06:54:33.478Z,19.9
2018-11-07T06:55:35.146Z,19.9
2018-11-07T06:56:36.590Z,19.9
2018-11-07T06:57:38.215Z,19.9
2018-11-07T06:58:40.120Z,19.9
2018-11-07T06:59:41.496Z,20
2018-11-07T07:00:43.119Z,20
2018-11-07T07:01:44.447Z,19.9
2018-11-07T07:02:46.349Z,19.9
2018-11-07T07:03:47.971Z,19.9
2018-11-07T07:04:49.874Z,20
2018-11-07T07:05:51.772Z,20
2018-11-07T07:06:53.675Z,20
2018-11-07T07:07:55.021Z,20
2018-11-07T07:08:56.076Z,19.9
2018-11-07T07:09:57.407Z,20
2018-11-07T07:10:59.035Z,20
2018-11-07T07:12:00.397Z,19.9
2018-11-07T07:13:02.060Z,20
2018-11-07T07:14:03.963Z,20
2018-11-07T07:15:05.563Z,20
2018-11-07T07:16:06.910Z,20
2018-11-07T07:17:08.531Z,20
2018-11-07T07:18:10.303Z,20
2018-11-07T07:19:12.717Z,20
2018-11-07T07:20:14.619Z,20
2018-11-07T07:21:16.542Z,20
2018-11-07T07:22:18.171Z,20
2018-11-07T07:23:20.072Z,20
2018-11-07T07:24:21.203Z,19.9
2018-11-07T07:25:22.831Z,19.9
2018-11-07T07:26:23.873Z,20
2018-11-07T07:27:25.198Z,20
2018-11-07T07:28:27.101Z,20
2018-11-07T07:29:28.733Z,20
2018-11-07T07:30:30.134Z,20
2018-11-07T07:31:31.665Z,20.1
2018-11-07T07:32:33.010Z,20
2018-11-07T07:33:34.969Z,20
2018-11-07T07:34:36.800Z,19.9
2018-11-07T07:35:38.752Z,19.9
2018-11-07T07:36:40.405Z,19.9
2018-11-07T07:37:41.748Z,20
2018-11-07T07:38:43.507Z,20
2018-11-07T07:39:44.841Z,20
2018-11-07T07:40:46.575Z,20
2018-11-07T07:41:47.967Z,19.9
2018-11-07T07:42:50.009Z,20
2018-11-07T07:43:51.383Z,19.9
2018-11-07T07:44:53.383Z,19.9
2018-11-07T07:45:55.287Z,19.9
2018-11-07T07:46:56.952Z,19.9
2018-11-07T07:47:58.402Z,20
2018-11-07T07:48:59.796Z,20
2018-11-07T07:50:01.554Z,19.9
2018-11-07T07:51:03.469Z,19.9
2018-11-07T07:52:05.374Z,20
2018-11-07T07:53:07.056Z,19.9
2018-11-07T07:54:08.536Z,19.9
2018-11-07T07:55:10.213Z,19.9
2018-11-07T07:56:11.532Z,19.9
2018-11-07T07:57:13.431Z,19.9
2018-11-07T07:58:14.780Z,20.1
2018-11-07T07:59:16.412Z,20
2018-11-07T08:00:18.033Z,20
2018-11-07T08:01:19.658Z,20
2018-11-07T08:02:21.260Z,20
2018-11-07T08:03:22.608Z,20
2018-11-07T08:04:24.256Z,20
2018-11-07T08:05:25.876Z,20.1
2018-11-07T08:06:27.498Z,20.1
2018-11-07T08:07:29.398Z,20.1
2018-11-07T08:08:31.021Z,20.1
2018-11-07T08:09:32.924Z,20.1
2018-11-07T08:10:34.824Z,20.2
2018-11-07T08:11:36.725Z,20.1
2018-11-07T08:12:38.639Z,20.1
2018-11-07T08:13:40.047Z,20.1
2018-11-07T08:14:41.134Z,20.2
2018-11-07T08:15:42.758Z,20.2
2018-11-07T08:16:44.389Z,20.2
2018-11-07T08:17:46.015Z,20.2
2018-11-07T08:18:47.340Z,20.2
2018-11-07T08:19:48.669Z,20.2
2018-11-07T08:20:50.303Z,20.2
2018-11-07T08:21:52.201Z,20.2
2018-11-07T08:22:53.820Z,20.3
2018-11-07T08:23:55.172Z,20.3
2018-11-07T08:24:57.067Z,20.2
2018-11-07T08:25:58.420Z,20.2
2018-11-07T08:26:59.775Z,20.3
2018-11-07T08:28:00.822Z,20.3
2018-11-07T08:29:02.501Z,20.3
2018-11-07T08:30:03.912Z,20.3
2018-11-07T08:31:05.815Z,20.3
2018-11-07T08:32:07.182Z,20.2
2018-11-07T08:33:08.814Z,20.3
2018-11-07T08:34:10.163Z,20.3
2018-11-07T08:35:11.817Z,20.3
2018-11-07T08:36:13.462Z,20.3
2018-11-07T08:37:15.360Z,20.3
2018-11-07T08:38:17.266Z,20.3
2018-11-07T08:39:18.888Z,20.3
2018-11-07T08:40:20.514Z,20.3
2018-11-07T08:41:22.135Z,20.3
2018-11-07T08:42:23.641Z,20.4
2018-11-07T08:43:26.111Z,20.4
2018-11-07T08:44:27.440Z,20.3
2018-11-07T08:45:29.086Z,20.4
2018-11-07T08:46:30.717Z,20.4
2018-11-07T08:47:32.617Z,20.4
2018-11-07T08:48:34.513Z,20.4
2018-11-07T08:49:36.444Z,20.4
2018-11-07T08:50:38.194Z,20.4
2018-11-07T08:51:39.820Z,20.4
2018-11-07T08:52:41.165Z,20.4
2018-11-07T08:53:42.771Z,20.4
2018-11-07T08:54:44.714Z,20.4
2018-11-07T08:55:46.340Z,20.4
2018-11-07T08:56:47.963Z,20.4
2018-11-07T08:57:49.311Z,20.4
2018-11-07T08:58:51.215Z,20.4
2018-11-07T08:59:52.562Z,20.4
2018-11-07T09:00:54.463Z,20.4
2018-11-07T09:01:55.552Z,20.4
2018-11-07T09:02:56.887Z,20.4
2018-11-07T09:03:58.235Z,20.4
2018-11-07T09:04:59.858Z,20.4
2018-11-07T09:06:01.481Z,20.5
2018-11-07T09:07:02.829Z,20.5
2018-11-07T09:08:04.174Z,20.5
2018-11-07T09:09:05.496Z,20.6
2018-11-07T09:10:06.822Z,20.5
2018-11-07T09:11:07.875Z,20.5
2018-11-07T09:12:09.247Z,20.5
2018-11-07T09:13:10.985Z,20.6
2018-11-07T09:14:12.312Z,20.5
2018-11-07T09:15:13.674Z,20.5
2018-11-07T09:16:15.012Z,20.5
2018-11-07T09:17:16.633Z,20.5
2018-11-07T09:18:18.259Z,20.6
2018-11-07T09:19:20.159Z,20.5
2018-11-07T09:20:21.766Z,20.6
2018-11-07T09:21:23.395Z,20.5
2018-11-07T09:22:25.291Z,20.6
2018-11-07T09:23:26.642Z,20.6
2018-11-07T09:24:28.379Z,20.6
2018-11-07T09:25:30.782Z,20.6
2018-11-07T09:26:32.383Z,20.6
2018-11-07T09:27:34.086Z,20.6
2018-11-07T09:28:35.797Z,20.5
2018-11-07T09:29:37.694Z,20.6
2018-11-07T09:30:39.600Z,20.6
2018-11-07T09:31:41.221Z,20.6
2018-11-07T09:32:42.860Z,20.6
2018-11-07T09:33:44.484Z,20.6
2018-11-07T09:34:46.387Z,20.6
2018-11-07T09:35:47.801Z,20.6
2018-11-07T09:36:48.855Z,20.6
2018-11-07T09:37:50.886Z,20.6
2018-11-07T09:38:52.788Z,20.6
2018-11-07T09:39:54.687Z,20.6
2018-11-07T09:40:56.327Z,20.6
2018-11-07T09:41:57.952Z,20.6
2018-11-07T09:43:00.308Z,20.6
2018-11-07T09:44:01.367Z,20.6
2018-11-07T09:45:03.000Z,20.6
2018-11-07T09:46:04.618Z,20.6
2018-11-07T09:47:06.272Z,20.6
2018-11-07T09:48:07.973Z,20.6
2018-11-07T09:49:09.454Z,20.7
2018-11-07T09:50:10.783Z,20.7
2018-11-07T09:51:12.683Z,20.6
2018-11-07T09:52:14.030Z,20.6
2018-11-07T09:53:15.658Z,20.7
2018-11-07T09:54:17.575Z,20.8
2018-11-07T09:55:19.196Z,20.7
2018-11-07T09:56:21.157Z,20.7
2018-11-07T09:57:22.799Z,20.8
2018-11-07T09:58:24.428Z,20.8
2018-11-07T09:59:25.815Z,20.7
2018-11-07T10:00:27.515Z,20.7
2018-11-07T10:01:28.927Z,20.6
2018-11-07T10:02:30.539Z,20.7
2018-11-07T10:03:31.587Z,20.7
2018-11-07T10:04:33.213Z,20.8
2018-11-07T10:05:34.646Z,20.7
2018-11-07T10:06:36.724Z,20.7
2018-11-07T10:07:38.573Z,20.8
2018-11-07T10:08:40.243Z,20.8
2018-11-07T10:09:41.847Z,20.8
2018-11-07T10:10:43.203Z,20.8
2018-11-07T10:11:44.545Z,20.8
2018-11-07T10:12:46.447Z,20.9
2018-11-07T10:13:48.381Z,20.8
2018-11-07T10:14:50.282Z,20.8
2018-11-07T10:15:51.633Z,20.8
2018-11-07T10:16:53.536Z,20.9
2018-11-07T10:17:55.437Z,20.8
2018-11-07T10:18:57.062Z,20.8
2018-11-07T10:19:57.832Z,20.8
2018-11-07T10:20:59.460Z,20.8
2018-11-07T10:22:01.357Z,20.9
2018-11-07T10:23:02.433Z,20.9
2018-11-07T10:24:04.064Z,20.8
2018-11-07T10:25:05.380Z,20.8
2018-11-07T10:26:07.012Z,20.7
2018-11-07T10:27:08.875Z,20.7
2018-11-07T10:28:10.890Z,20.8
2018-11-07T10:29:13.020Z,20.8
2018-11-07T10:30:15.340Z,20.8
2018-11-07T10:31:18.235Z,20.9
2018-11-07T10:32:19.865Z,20.8
2018-11-07T10:33:21.763Z,20.9
2018-11-07T10:34:23.415Z,20.9
2018-11-07T10:35:25.448Z,21
2018-11-07T10:36:26.595Z,20.9
2018-11-07T10:37:32.463Z,20.9
2018-11-07T10:38:34.279Z,21
2018-11-07T10:39:36.080Z,20.9
2018-11-07T10:40:37.472Z,20.9
2018-11-07T10:41:39.098Z,20.9
2018-11-07T10:42:40.427Z,21
2018-11-07T10:43:42.346Z,21
2018-11-07T10:44:44.091Z,20.9
2018-11-07T10:45:46.415Z,20.9
2018-11-07T10:46:48.346Z,21
2018-11-07T10:47:50.284Z,20.9
2018-11-07T10:48:52.115Z,21
2018-11-07T10:49:53.478Z,21
2018-11-07T10:50:55.388Z,21
2018-11-07T10:51:57.158Z,21
2018-11-07T10:52:57.809Z,20.9
2018-11-07T10:53:59.892Z,20.9
2018-11-07T10:55:01.507Z,20.9
2018-11-07T10:56:03.157Z,20.9
2018-11-07T10:57:04.783Z,20.9
2018-11-07T10:58:06.112Z,21
2018-11-07T10:59:07.737Z,20.9
2018-11-07T11:00:09.341Z,21
2018-11-07T11:01:10.693Z,20.9
2018-11-07T11:02:12.023Z,20.9
2018-11-07T11:03:13.669Z,21
2018-11-07T11:04:15.293Z,20.9
2018-11-07T11:05:16.759Z,20.9
2018-11-07T11:06:18.332Z,21.1
2018-11-07T11:07:19.654Z,21.1
2018-11-07T11:08:21.556Z,21
2018-11-07T11:09:23.183Z,21
2018-11-07T11:10:25.083Z,21
2018-11-07T11:11:26.787Z,20.9
2018-11-07T11:12:28.737Z,21
2018-11-07T11:13:30.369Z,20.9
2018-11-07T11:14:32.276Z,21
2018-11-07T11:15:33.902Z,21
2018-11-07T11:16:35.802Z,21
2018-11-07T11:17:37.711Z,21
2018-11-07T11:18:39.612Z,21
2018-11-07T11:19:40.956Z,21.1
2018-11-07T11:20:42.854Z,21
2018-11-07T11:21:44.753Z,21.1
2018-11-07T11:22:46.360Z,21
2018-11-07T11:23:47.984Z,21.1
2018-11-07T11:24:49.335Z,21.1
2018-11-07T11:25:51.023Z,21
2018-11-07T11:26:53.204Z,21.1
2018-11-07T11:27:53.977Z,21.1
2018-11-07T11:28:55.875Z,21.1
2018-11-07T11:29:57.220Z,21.1
2018-11-07T11:30:58.570Z,21
2018-11-07T11:32:00.204Z,21.1
2018-11-07T11:33:01.532Z,21.1
2018-11-07T11:34:03.288Z,21.2
2018-11-07T11:35:05.496Z,21.1
2018-11-07T11:36:07.868Z,21.1
2018-11-07T11:37:09.768Z,21.2
2018-11-07T11:38:11.668Z,21.2
2018-11-07T11:39:13.574Z,21.2
2018-11-07T11:40:14.919Z,21.1
2018-11-07T11:41:16.586Z,21.1
2018-11-07T11:42:18.523Z,21.1
2018-11-07T11:43:20.424Z,21.1
2018-11-07T11:44:22.410Z,21.1
2018-11-07T11:45:24.036Z,21.2
2018-11-07T11:46:25.402Z,21
2018-11-07T11:47:27.027Z,21.1
2018-11-07T11:48:28.933Z,21.1
2018-11-07T11:49:30.540Z,21.1
2018-11-07T11:50:31.893Z,21.1
2018-11-07T11:51:33.217Z,21.1
2018-11-07T11:52:35.121Z,21.2
2018-11-07T11:53:36.763Z,21
2018-11-07T11:54:38.114Z,21.2
2018-11-07T11:55:39.443Z,21.1
2018-11-07T11:56:40.792Z,21.1
2018-11-07T11:57:42.124Z,21.1
2018-11-07T11:58:43.798Z,21.2
2018-11-07T11:59:45.936Z,21.1
2018-11-07T12:00:49.815Z,21.1
2018-11-07T12:01:51.448Z,21.1
2018-11-07T12:02:52.800Z,21.2
2018-11-07T12:03:54.150Z,21.1
2018-11-07T12:04:55.481Z,21
2018-11-07T12:05:57.085Z,21.2
2018-11-07T12:06:58.987Z,21.1
2018-11-07T12:08:00.611Z,21.2
2018-11-07T12:09:02.019Z,21.3
2018-11-07T12:10:04.073Z,21.2
2018-11-07T12:11:05.697Z,21.2
2018-11-07T12:12:07.375Z,21.1
2018-11-07T12:13:08.908Z,21.1
2018-11-07T12:14:10.994Z,21.2
2018-11-07T12:15:12.649Z,21.1
2018-11-07T12:16:14.121Z,21.3
2018-11-07T12:17:15.172Z,21.2
2018-11-07T12:18:16.520Z,21.3
2018-11-07T12:19:18.145Z,21.3
2018-11-07T12:20:19.494Z,21.3
2018-11-07T12:21:21.148Z,21.2
2018-11-07T12:22:23.572Z,21.3
2018-11-07T12:23:24.625Z,21.1
2018-11-07T12:24:25.692Z,21.2
2018-11-07T12:25:27.324Z,21.3
2018-11-07T12:26:29.221Z,21.3
2018-11-07T12:27:30.848Z,21.3
2018-11-07T12:28:32.173Z,21.3
2018-11-07T12:29:33.222Z,21.3
2018-11-07T12:30:34.839Z,21.3
2018-11-07T12:31:36.169Z,21.3
2018-11-07T12:32:37.767Z,21.3
2018-11-07T12:33:39.368Z,21.3
2018-11-07T12:34:40.432Z,21.3
2018-11-07T12:35:42.054Z,21.3
2018-11-07T12:36:43.961Z,21.3
2018-11-07T12:37:45.856Z,21.3
2018-11-07T12:38:47.477Z,21.3
2018-11-07T12:39:49.099Z,21.3
2018-11-07T12:40:50.425Z,21.3
2018-11-07T12:41:52.321Z,21.3
2018-11-07T12:42:54.015Z,21.4
2018-11-07T12:43:55.578Z,21.3
2018-11-07T12:44:57.198Z,21.3
2018-11-07T12:45:58.543Z,21.4
2018-11-07T12:47:00.165Z,21.3
2018-11-07T12:48:01.209Z,21.4
2018-11-07T12:49:02.561Z,21.4
2018-11-07T12:50:04.596Z,21.4
2018-11-07T12:51:05.831Z,21.4
2018-11-07T12:52:07.172Z,21.4
2018-11-07T12:53:08.797Z,21.4
2018-11-07T12:54:10.696Z,21.4
2018-11-07T12:55:12.038Z,21.4
2018-11-07T12:56:13.380Z,21.4
2018-11-07T12:57:14.540Z,21.4
2018-11-07T12:58:16.630Z,21.4
2018-11-07T12:59:19.022Z,21.4
2018-11-07T13:00:20.652Z,21.5
2018-11-07T13:01:22.273Z,21.4
2018-11-07T13:02:23.896Z,21.4
2018-11-07T13:03:25.269Z,21.4
2018-11-07T13:04:26.917Z,21.4
2018-11-07T13:05:28.646Z,21.4
2018-11-07T13:06:30.268Z,21.4
2018-11-07T13:07:32.168Z,21.5
2018-11-07T13:08:33.797Z,21.4
2018-11-07T13:09:35.144Z,21.4
2018-11-07T13:10:36.778Z,21.4
2018-11-07T13:11:38.720Z,21.5
2018-11-07T13:12:40.339Z,21.5
2018-11-07T13:13:41.995Z,21.4
2018-11-07T13:14:43.614Z,21.5
2018-11-07T13:15:44.681Z,21.4
2018-11-07T13:16:46.579Z,21.4
2018-11-07T13:17:47.636Z,21.5
2018-11-07T13:18:48.958Z,21.4
2018-11-07T13:19:50.579Z,21.5
2018-11-07T13:20:52.205Z,21.4
2018-11-07T13:21:53.527Z,21.5
2018-11-07T13:22:55.153Z,21.5
2018-11-07T13:23:56.792Z,21.5
2018-11-07T13:24:58.136Z,21.5
2018-11-07T13:25:59.465Z,21.5
2018-11-07T13:27:01.362Z,21.6
2018-11-07T13:28:02.768Z,21.6
2018-11-07T13:29:04.127Z,21.5
2018-11-07T13:30:05.502Z,21.5
2018-11-07T13:31:06.847Z,21.6
2018-11-07T13:32:08.541Z,21.6
2018-11-07T13:33:09.590Z,21.6
2018-11-07T13:34:10.650Z,21.6
2018-11-07T13:35:12.334Z,21.5
2018-11-07T13:36:14.234Z,21.6
2018-11-07T13:37:16.227Z,21.6
2018-11-07T13:38:19.878Z,21.6
2018-11-07T13:39:22.115Z,21.5
2018-11-07T13:40:23.985Z,21.6
2018-11-07T13:41:25.592Z,21.6
2018-11-07T13:42:27.208Z,21.6
2018-11-07T13:43:28.556Z,21.6
2018-11-07T13:44:29.933Z,21.6
2018-11-07T13:45:31.668Z,21.6
2018-11-07T13:46:33.239Z,21.6
2018-11-07T13:47:34.589Z,21.6
2018-11-07T13:48:36.494Z,21.6